sensor_id;sensor_type;location;lat;lon;timestamp;pressure;altitude;pressure_sealevel;temperature;humidity
74778;BME280;63298;53.164;8.610;2022-09-12T00:00:47;101942.25;;;16.15;70.25
74778;BME280;63298;53.164;8.610;2022-09-12T00:03:13;101938.25;;;16.11;70.68
74778;BME280;63298;53.164;8.610;2022-09-12T00:05:46;101946.28;;;16.07;70.84
74778;BME280;63298;53.164;8.610;2022-09-12T00:08:12;101934.19;;;16.02;70.66
74778;BME280;63298;53.164;8.610;2022-09-12T00:10:41;101938.06;;;16.01;70.97
74778;BME280;63298;53.164;8.610;2022-09-12T00:13:07;101935.88;;;16.03;70.93
74778;BME280;63298;53.164;8.610;2022-09-12T00:15:38;101929.94;;;15.99;71.18
74778;BME280;63298;53.164;8.610;2022-09-12T00:18:03;101922.31;;;15.94;71.07
74778;BME280;63298;53.164;8.610;2022-09-12T00:20:29;101930.19;;;15.97;70.63
74778;BME280;63298;53.164;8.610;2022-09-12T00:22:54;101921.84;;;15.97;71.14
74778;BME280;63298;53.164;8.610;2022-09-12T00:25:19;101921.00;;;15.97;71.35
74778;BME280;63298;53.164;8.610;2022-09-12T00:27:45;101922.94;;;15.96;71.12
74778;BME280;63298;53.164;8.610;2022-09-12T00:30:10;101916.53;;;15.96;71.10
74778;BME280;63298;53.164;8.610;2022-09-12T00:32:36;101917.03;;;15.93;70.92
74778;BME280;63298;53.164;8.610;2022-09-12T00:35:01;101914.47;;;15.91;70.97
74778;BME280;63298;53.164;8.610;2022-09-12T00:37:26;101908.31;;;15.89;71.03
74778;BME280;63298;53.164;8.610;2022-09-12T00:39:52;101912.53;;;15.92;71.22
74778;BME280;63298;53.164;8.610;2022-09-12T00:42:18;101910.59;;;15.92;71.22
74778;BME280;63298;53.164;8.610;2022-09-12T00:44:46;101909.03;;;15.96;70.84
74778;BME280;63298;53.164;8.610;2022-09-12T00:47:20;101910.97;;;15.96;71.35
74778;BME280;63298;53.164;8.610;2022-09-12T00:52:34;101902.84;;;15.94;71.06
74778;BME280;63298;53.164;8.610;2022-09-12T00:57:35;101904.53;;;15.95;71.14
74778;BME280;63298;53.164;8.610;2022-09-12T01:00:09;101900.91;;;15.95;71.20
74778;BME280;63298;53.164;8.610;2022-09-12T01:02:36;101903.44;;;15.96;71.21
74778;BME280;63298;53.164;8.610;2022-09-12T01:05:01;101889.44;;;15.91;71.06
74778;BME280;63298;53.164;8.610;2022-09-12T01:07:27;101886.31;;;15.88;71.59
74778;BME280;63298;53.164;8.610;2022-09-12T01:09:52;101889.31;;;15.86;71.45
74778;BME280;63298;53.164;8.610;2022-09-12T01:12:19;101892.09;;;15.86;71.47
74778;BME280;63298;53.164;8.610;2022-09-12T01:14:44;101888.47;;;15.86;71.62
74778;BME280;63298;53.164;8.610;2022-09-12T01:17:12;101885.34;;;15.82;72.07
74778;BME280;63298;53.164;8.610;2022-09-12T01:20:17;101889.97;;;15.77;71.27
74778;BME280;63298;53.164;8.610;2022-09-12T01:31:07;101890.19;;;15.75;71.69
74778;BME280;63298;53.164;8.610;2022-09-12T01:36:18;101884.78;;;15.69;71.60
74778;BME280;63298;53.164;8.610;2022-09-12T01:38:59;101890.94;;;15.71;71.64
74778;BME280;63298;53.164;8.610;2022-09-12T01:47:17;101877.75;;;15.66;71.80
74778;BME280;63298;53.164;8.610;2022-09-12T01:49:25;101886.59;;;15.63;71.95
74778;BME280;63298;53.164;8.610;2022-09-12T01:52:17;101883.09;;;15.56;71.90
74778;BME280;63298;53.164;8.610;2022-09-12T01:54:49;101881.66;;;15.53;71.97
74778;BME280;63298;53.164;8.610;2022-09-12T01:57:24;101880.41;;;15.49;72.37
74778;BME280;63298;53.164;8.610;2022-09-12T01:59:56;101878.97;;;15.47;72.19
74778;BME280;63298;53.164;8.610;2022-09-12T02:02:48;101876.94;;;15.42;72.36
74778;BME280;63298;53.164;8.610;2022-09-12T02:05:32;101865.47;;;15.39;72.69
74778;BME280;63298;53.164;8.610;2022-09-12T02:08:05;101861.22;;;15.36;72.46
74778;BME280;63298;53.164;8.610;2022-09-12T02:10:54;101855.31;;;15.33;72.70
74778;BME280;63298;53.164;8.610;2022-09-12T02:13:55;101857.81;;;15.34;72.40
74778;BME280;63298;53.164;8.610;2022-09-12T02:17:23;101849.00;;;15.37;72.08
74778;BME280;63298;53.164;8.610;2022-09-12T02:19:21;101852.88;;;15.36;72.12
74778;BME280;63298;53.164;8.610;2022-09-12T02:21:52;101839.47;;;15.33;72.02
74778;BME280;63298;53.164;8.610;2022-09-12T02:24:18;101850.09;;;15.36;71.93
74778;BME280;63298;53.164;8.610;2022-09-12T02:27:04;101853.72;;;15.37;72.56
74778;BME280;63298;53.164;8.610;2022-09-12T02:29:30;101849.34;;;15.41;72.13
74778;BME280;63298;53.164;8.610;2022-09-12T02:32:01;101837.28;;;15.35;71.88
74778;BME280;63298;53.164;8.610;2022-09-12T02:34:43;101834.88;;;15.27;72.76
74778;BME280;63298;53.164;8.610;2022-09-12T02:39:47;101838.28;;;15.18;73.14
74778;BME280;63298;53.164;8.610;2022-09-12T02:42:13;101837.06;;;15.13;72.93
74778;BME280;63298;53.164;8.610;2022-09-12T02:44:39;101847.34;;;15.13;72.92
74778;BME280;63298;53.164;8.610;2022-09-12T02:47:10;101840.69;;;15.14;72.97
74778;BME280;63298;53.164;8.610;2022-09-12T02:49:38;101835.16;;;15.14;72.69
74778;BME280;63298;53.164;8.610;2022-09-12T02:52:03;101834.53;;;15.12;73.00
74778;BME280;63298;53.164;8.610;2022-09-12T02:54:29;101825.84;;;15.08;72.69
74778;BME280;63298;53.164;8.610;2022-09-12T02:56:55;101829.69;;;15.07;72.47
74778;BME280;63298;53.164;8.610;2022-09-12T02:59:22;101836.56;;;15.05;73.07
74778;BME280;63298;53.164;8.610;2022-09-12T03:05:01;101826.56;;;15.04;73.40
74778;BME280;63298;53.164;8.610;2022-09-12T03:13:21;101835.63;;;14.99;73.35
74778;BME280;63298;53.164;8.610;2022-09-12T03:16:23;101833.44;;;15.01;73.17
74778;BME280;63298;53.164;8.610;2022-09-12T03:19:01;101827.53;;;14.98;72.84
74778;BME280;63298;53.164;8.610;2022-09-12T03:21:32;101831.03;;;14.93;73.30
74778;BME280;63298;53.164;8.610;2022-09-12T03:24:12;101828.13;;;14.88;73.22
74778;BME280;63298;53.164;8.610;2022-09-12T03:26:41;101832.84;;;14.88;72.96
74778;BME280;63298;53.164;8.610;2022-09-12T03:29:09;101830.31;;;14.86;73.25
74778;BME280;63298;53.164;8.610;2022-09-12T03:31:36;101827.16;;;14.83;73.06
74778;BME280;63298;53.164;8.610;2022-09-12T03:34:02;101831.25;;;14.80;73.67
74778;BME280;63298;53.164;8.610;2022-09-12T03:36:28;101828.97;;;14.77;73.49
74778;BME280;63298;53.164;8.610;2022-09-12T03:38:54;101839.00;;;14.78;73.66
74778;BME280;63298;53.164;8.610;2022-09-12T03:41:19;101834.75;;;14.76;73.65
74778;BME280;63298;53.164;8.610;2022-09-12T03:43:45;101830.53;;;14.73;73.45
74778;BME280;63298;53.164;8.610;2022-09-12T03:46:11;101832.25;;;14.74;73.74
74778;BME280;63298;53.164;8.610;2022-09-12T03:48:37;101833.56;;;14.72;73.59
74778;BME280;63298;53.164;8.610;2022-09-12T03:51:05;101827.63;;;14.68;73.79
74778;BME280;63298;53.164;8.610;2022-09-12T03:53:31;101822.94;;;14.68;73.62
74778;BME280;63298;53.164;8.610;2022-09-12T03:55:56;101826.19;;;14.65;73.89
74778;BME280;63298;53.164;8.610;2022-09-12T03:58:22;101817.50;;;14.62;74.22
74778;BME280;63298;53.164;8.610;2022-09-12T04:00:47;101816.91;;;14.60;74.28
74778;BME280;63298;53.164;8.610;2022-09-12T04:03:13;101815.19;;;14.59;73.91
74778;BME280;63298;53.164;8.610;2022-09-12T04:05:38;101817.13;;;14.58;73.78
74778;BME280;63298;53.164;8.610;2022-09-12T04:08:03;101819.28;;;14.56;74.28
74778;BME280;63298;53.164;8.610;2022-09-12T04:10:30;101813.72;;;14.56;73.94
74778;BME280;63298;53.164;8.610;2022-09-12T04:12:55;101822.44;;;14.60;74.18
74778;BME280;63298;53.164;8.610;2022-09-12T04:15:20;101824.84;;;14.56;73.91
74778;BME280;63298;53.164;8.610;2022-09-12T04:17:46;101828.69;;;14.55;74.09
74778;BME280;63298;53.164;8.610;2022-09-12T04:20:11;101819.78;;;14.53;74.20
74778;BME280;63298;53.164;8.610;2022-09-12T04:22:36;101824.47;;;14.53;74.47
74778;BME280;63298;53.164;8.610;2022-09-12T04:25:03;101813.00;;;14.49;74.02
74778;BME280;63298;53.164;8.610;2022-09-12T04:27:28;101820.00;;;14.52;74.42
74778;BME280;63298;53.164;8.610;2022-09-12T04:29:54;101818.94;;;14.53;74.17
74778;BME280;63298;53.164;8.610;2022-09-12T04:32:20;101809.97;;;14.51;74.22
74778;BME280;63298;53.164;8.610;2022-09-12T04:34:45;101816.16;;;14.53;74.59
74778;BME280;63298;53.164;8.610;2022-09-12T04:37:11;101819.78;;;14.53;74.26
74778;BME280;63298;53.164;8.610;2022-09-12T04:39:36;101820.28;;;14.50;74.10
74778;BME280;63298;53.164;8.610;2022-09-12T04:42:01;101815.41;;;14.46;74.19
74778;BME280;63298;53.164;8.610;2022-09-12T04:44:27;101816.50;;;14.45;74.09
74778;BME280;63298;53.164;8.610;2022-09-12T04:46:53;101812.03;;;14.44;74.67
74778;BME280;63298;53.164;8.610;2022-09-12T04:49:18;101824.00;;;14.44;74.20
74778;BME280;63298;53.164;8.610;2022-09-12T04:51:43;101815.16;;;14.47;74.38
74778;BME280;63298;53.164;8.610;2022-09-12T04:54:15;101826.06;;;14.49;74.13
74778;BME280;63298;53.164;8.610;2022-09-12T04:56:44;101821.34;;;14.49;74.54
74778;BME280;63298;53.164;8.610;2022-09-12T04:59:11;101818.56;;;14.49;74.65
74778;BME280;63298;53.164;8.610;2022-09-12T05:01:37;101819.41;;;14.50;73.98
74778;BME280;63298;53.164;8.610;2022-09-12T05:04:02;101823.84;;;14.51;73.90
74778;BME280;63298;53.164;8.610;2022-09-12T05:06:33;101814.72;;;14.50;74.64
74778;BME280;63298;53.164;8.610;2022-09-12T05:09:00;101818.56;;;14.49;74.30
74778;BME280;63298;53.164;8.610;2022-09-12T05:11:29;101816.88;;;14.48;74.42
74778;BME280;63298;53.164;8.610;2022-09-12T05:13:55;101811.81;;;14.45;74.44
74778;BME280;63298;53.164;8.610;2022-09-12T05:16:22;101818.78;;;14.48;74.76
74778;BME280;63298;53.164;8.610;2022-09-12T05:18:47;101815.16;;;14.47;74.77
74778;BME280;63298;53.164;8.610;2022-09-12T05:21:15;101806.25;;;14.45;74.71
74778;BME280;63298;53.164;8.610;2022-09-12T05:23:42;101806.84;;;14.47;74.63
74778;BME280;63298;53.164;8.610;2022-09-12T05:26:11;101809.84;;;14.46;74.94
74778;BME280;63298;53.164;8.610;2022-09-12T05:28:37;101799.84;;;14.45;74.87
74778;BME280;63298;53.164;8.610;2022-09-12T05:31:05;101804.56;;;14.44;75.09
74778;BME280;63298;53.164;8.610;2022-09-12T05:33:33;101803.59;;;14.50;75.28
74778;BME280;63298;53.164;8.610;2022-09-12T05:35:59;101810.81;;;14.51;74.84
74778;BME280;63298;53.164;8.610;2022-09-12T05:38:25;101805.88;;;14.53;74.74
74778;BME280;63298;53.164;8.610;2022-09-12T05:40:51;101812.53;;;14.52;75.11
74778;BME280;63298;53.164;8.610;2022-09-12T05:43:16;101788.25;;;14.48;75.35
74778;BME280;63298;53.164;8.610;2022-09-12T05:45:42;101806.47;;;14.55;75.26
74778;BME280;63298;53.164;8.610;2022-09-12T05:48:07;101799.63;;;14.58;74.83
74778;BME280;63298;53.164;8.610;2022-09-12T05:50:33;101801.91;;;14.61;75.53
74778;BME280;63298;53.164;8.610;2022-09-12T05:52:58;101800.81;;;14.62;75.55
74778;BME280;63298;53.164;8.610;2022-09-12T05:55:23;101799.13;;;14.61;75.29
74778;BME280;63298;53.164;8.610;2022-09-12T05:57:49;101797.47;;;14.60;75.18
74778;BME280;63298;53.164;8.610;2022-09-12T06:00:15;101812.91;;;14.67;75.51
74778;BME280;63298;53.164;8.610;2022-09-12T06:02:41;101799.03;;;14.67;75.24
74778;BME280;63298;53.164;8.610;2022-09-12T06:05:06;101807.47;;;14.73;75.02
74778;BME280;63298;53.164;8.610;2022-09-12T06:07:31;101803.97;;;14.77;75.27
74778;BME280;63298;53.164;8.610;2022-09-12T06:09:57;101808.69;;;14.77;76.01
74778;BME280;63298;53.164;8.610;2022-09-12T06:12:24;101813.38;;;14.76;75.33
74778;BME280;63298;53.164;8.610;2022-09-12T06:14:50;101814.34;;;14.82;75.71
74778;BME280;63298;53.164;8.610;2022-09-12T06:17:15;101813.03;;;14.84;75.97
74778;BME280;63298;53.164;8.610;2022-09-12T06:19:40;101802.53;;;14.86;75.78
74778;BME280;63298;53.164;8.610;2022-09-12T06:22:06;101808.81;;;14.93;75.72
74778;BME280;63298;53.164;8.610;2022-09-12T06:24:31;101801.69;;;14.97;75.23
74778;BME280;63298;53.164;8.610;2022-09-12T06:26:56;101801.28;;;15.05;75.38
74778;BME280;63298;53.164;8.610;2022-09-12T06:29:21;101806.84;;;15.05;nan
74778;BME280;63298;53.164;8.610;2022-09-12T06:31:47;101805.53;;;15.08;75.79
74778;BME280;63298;53.164;8.610;2022-09-12T06:34:14;101808.16;;;15.14;75.11
74778;BME280;63298;53.164;8.610;2022-09-12T06:36:45;101806.97;;;15.22;76.61
74778;BME280;63298;53.164;8.610;2022-09-12T06:39:28;101800.31;;;15.23;76.69
74778;BME280;63298;53.164;8.610;2022-09-12T06:41:54;101801.00;;;15.30;75.46
74778;BME280;63298;53.164;8.610;2022-09-12T06:44:21;101805.94;;;15.40;75.38
74778;BME280;63298;53.164;8.610;2022-09-12T06:46:46;101801.97;;;15.47;75.33
74778;BME280;63298;53.164;8.610;2022-09-12T06:49:12;101806.31;;;15.55;75.51
74778;BME280;63298;53.164;8.610;2022-09-12T06:51:37;101806.41;;;15.60;74.98
74778;BME280;63298;53.164;8.610;2022-09-12T06:54:03;101815.47;;;15.67;75.41
74778;BME280;63298;53.164;8.610;2022-09-12T06:56:29;101812.78;;;15.72;75.51
74778;BME280;63298;53.164;8.610;2022-09-12T06:58:56;101814.22;;;15.75;75.85
74778;BME280;63298;53.164;8.610;2022-09-12T07:01:24;101815.69;;;15.77;75.59
74778;BME280;63298;53.164;8.610;2022-09-12T07:03:57;101803.81;;;15.82;75.60
74778;BME280;63298;53.164;8.610;2022-09-12T07:06:25;101790.34;;;15.90;75.46
74778;BME280;63298;53.164;8.610;2022-09-12T07:08:51;101785.72;;;15.96;75.46
74778;BME280;63298;53.164;8.610;2022-09-12T07:11:19;101797.53;;;16.03;75.53
74778;BME280;63298;53.164;8.610;2022-09-12T07:13:47;101800.16;;;16.10;75.66
74778;BME280;63298;53.164;8.610;2022-09-12T07:16:13;101790.81;;;16.16;75.93
74778;BME280;63298;53.164;8.610;2022-09-12T07:18:39;101801.28;;;16.25;75.48
74778;BME280;63298;53.164;8.610;2022-09-12T07:21:08;101785.50;;;16.31;75.69
74778;BME280;63298;53.164;8.610;2022-09-12T07:23:34;101798.63;;;16.47;75.51
74778;BME280;63298;53.164;8.610;2022-09-12T07:26:00;101797.69;;;16.58;75.11
74778;BME280;63298;53.164;8.610;2022-09-12T07:28:28;101795.69;;;16.70;75.32
74778;BME280;63298;53.164;8.610;2022-09-12T07:30:53;101787.41;;;16.75;75.17
74778;BME280;63298;53.164;8.610;2022-09-12T07:33:20;101795.66;;;16.87;75.14
74778;BME280;63298;53.164;8.610;2022-09-12T07:35:45;101782.47;;;16.99;74.70
74778;BME280;63298;53.164;8.610;2022-09-12T07:38:11;101789.94;;;17.15;74.34
74778;BME280;63298;53.164;8.610;2022-09-12T07:40:36;101795.44;;;17.32;73.93
74778;BME280;63298;53.164;8.610;2022-09-12T07:43:01;101787.81;;;17.44;73.99
74778;BME280;63298;53.164;8.610;2022-09-12T07:45:27;101798.94;;;17.61;74.05
74778;BME280;63298;53.164;8.610;2022-09-12T07:47:53;101788.16;;;17.69;74.07
74778;BME280;63298;53.164;8.610;2022-09-12T07:50:18;101787.69;;;17.78;73.61
74778;BME280;63298;53.164;8.610;2022-09-12T07:52:43;101789.25;;;17.90;73.71
74778;BME280;63298;53.164;8.610;2022-09-12T07:55:09;101782.03;;;17.94;74.20
74778;BME280;63298;53.164;8.610;2022-09-12T07:57:34;101777.53;;;17.93;73.73
74778;BME280;63298;53.164;8.610;2022-09-12T07:59:59;101780.63;;;17.97;73.68
74778;BME280;63298;53.164;8.610;2022-09-12T08:02:24;101775.06;;;17.97;73.85
74778;BME280;63298;53.164;8.610;2022-09-12T08:04:50;101780.44;;;18.03;74.12
74778;BME280;63298;53.164;8.610;2022-09-12T08:07:15;101780.75;;;18.07;73.84
74778;BME280;63298;53.164;8.610;2022-09-12T08:09:40;101781.94;;;18.16;73.32
74778;BME280;63298;53.164;8.610;2022-09-12T08:12:06;101784.84;;;18.26;73.45
74778;BME280;63298;53.164;8.610;2022-09-12T08:14:31;101783.84;;;18.37;73.18
74778;BME280;63298;53.164;8.610;2022-09-12T08:16:56;101783.34;;;18.45;73.54
74778;BME280;63298;53.164;8.610;2022-09-12T08:19:22;101785.06;;;18.51;73.07
74778;BME280;63298;53.164;8.610;2022-09-12T08:21:47;101796.91;;;18.59;73.54
74778;BME280;63298;53.164;8.610;2022-09-12T08:24:13;101791.63;;;18.62;73.02
74778;BME280;63298;53.164;8.610;2022-09-12T08:26:38;101784.94;;;18.63;73.19
74778;BME280;63298;53.164;8.610;2022-09-12T08:29:03;101781.91;;;18.70;73.01
74778;BME280;63298;53.164;8.610;2022-09-12T08:31:29;101789.78;;;18.78;72.89
74778;BME280;63298;53.164;8.610;2022-09-12T08:33:56;101796.31;;;18.88;72.62
74778;BME280;63298;53.164;8.610;2022-09-12T08:36:24;101785.66;;;18.90;72.58
74778;BME280;63298;53.164;8.610;2022-09-12T08:38:57;101786.81;;;18.94;72.94
74778;BME280;63298;53.164;8.610;2022-09-12T08:41:39;101785.50;;;19.07;72.67
74778;BME280;63298;53.164;8.610;2022-09-12T08:52:30;101789.94;;;19.50;72.33
74778;BME280;63298;53.164;8.610;2022-09-12T08:54:59;101774.59;;;19.58;71.64
74778;BME280;63298;53.164;8.610;2022-09-12T08:57:25;101781.38;;;19.72;71.53
74778;BME280;63298;53.164;8.610;2022-09-12T08:59:51;101772.44;;;19.85;71.58
74778;BME280;63298;53.164;8.610;2022-09-12T09:08:23;101776.47;;;20.35;70.30
74778;BME280;63298;53.164;8.610;2022-09-12T09:11:09;101760.22;;;20.32;70.14
74778;BME280;63298;53.164;8.610;2022-09-12T09:16:34;101758.53;;;20.46;70.08
74778;BME280;63298;53.164;8.610;2022-09-12T09:19:08;101760.22;;;20.57;69.71
74778;BME280;63298;53.164;8.610;2022-09-12T09:21:56;101763.56;;;20.64;69.18
74778;BME280;63298;53.164;8.610;2022-09-12T09:24:32;101760.50;;;20.65;68.97
74778;BME280;63298;53.164;8.610;2022-09-12T09:27:04;101758.81;;;20.69;68.85
74778;BME280;63298;53.164;8.610;2022-09-12T09:29:38;101754.31;;;20.74;68.92
74778;BME280;63298;53.164;8.610;2022-09-12T09:32:13;101759.38;;;20.77;68.79
74778;BME280;63298;53.164;8.610;2022-09-12T09:34:40;101753.19;;;20.80;68.56
74778;BME280;63298;53.164;8.610;2022-09-12T09:45:29;101753.72;;;20.92;68.41
74778;BME280;63298;53.164;8.610;2022-09-12T09:51:12;101753.41;;;21.03;68.12
74778;BME280;63298;53.164;8.610;2022-09-12T09:53:46;101748.63;;;21.04;67.93
74778;BME280;63298;53.164;8.610;2022-09-12T09:56:35;101751.16;;;21.05;67.16
74778;BME280;63298;53.164;8.610;2022-09-12T09:59:25;101751.69;;;21.07;67.27
74778;BME280;63298;53.164;8.610;2022-09-12T10:01:57;101748.03;;;21.12;67.74
74778;BME280;63298;53.164;8.610;2022-09-12T10:04:26;101751.72;;;21.18;67.72
74778;BME280;63298;53.164;8.610;2022-09-12T10:07:02;101745.81;;;21.24;67.51
74778;BME280;63298;53.164;8.610;2022-09-12T10:09:33;101735.91;;;21.37;67.29
74778;BME280;63298;53.164;8.610;2022-09-12T10:12:00;101738.66;;;21.47;66.72
74778;BME280;63298;53.164;8.610;2022-09-12T10:16:57;101734.38;;;21.65;66.55
74778;BME280;63298;53.164;8.610;2022-09-12T10:19:33;101735.72;;;21.72;65.61
74778;BME280;63298;53.164;8.610;2022-09-12T10:21:58;101729.25;;;21.77;65.72
74778;BME280;63298;53.164;8.610;2022-09-12T10:24:27;101733.97;;;21.86;65.66
74778;BME280;63298;53.164;8.610;2022-09-12T10:29:27;101721.56;;;21.92;64.48
74778;BME280;63298;53.164;8.610;2022-09-12T10:31:59;101723.00;;;21.95;64.20
74778;BME280;63298;53.164;8.610;2022-09-12T10:34:33;101723.50;;;22.02;63.94
74778;BME280;63298;53.164;8.610;2022-09-12T10:37:15;101711.38;;;22.07;63.66
74778;BME280;63298;53.164;8.610;2022-09-12T10:39:50;101702.94;;;22.07;63.96
74778;BME280;63298;53.164;8.610;2022-09-12T10:42:17;101704.59;;;22.13;63.91
74778;BME280;63298;53.164;8.610;2022-09-12T10:44:51;101697.28;;;22.12;60.61
74778;BME280;63298;53.164;8.610;2022-09-12T10:47:21;101695.34;;;22.07;62.79
74778;BME280;63298;53.164;8.610;2022-09-12T10:49:46;101697.22;;;22.17;62.90
74778;BME280;63298;53.164;8.610;2022-09-12T10:52:20;101688.75;;;22.22;61.89
74778;BME280;63298;53.164;8.610;2022-09-12T10:54:46;101685.25;;;22.35;61.92
74778;BME280;63298;53.164;8.610;2022-09-12T11:00:07;101685.38;;;22.54;60.48
74778;BME280;63298;53.164;8.610;2022-09-12T11:02:40;101677.97;;;22.63;60.54
74778;BME280;63298;53.164;8.610;2022-09-12T11:05:13;101684.38;;;22.68;60.36
74778;BME280;63298;53.164;8.610;2022-09-12T11:07:46;101681.97;;;22.86;59.19
74778;BME280;63298;53.164;8.610;2022-09-12T11:15:46;101675.63;;;22.99;58.72
74778;BME280;63298;53.164;8.610;2022-09-12T11:34:56;101656.75;;;23.42;54.40
74778;BME280;63298;53.164;8.610;2022-09-12T11:37:48;101652.47;;;23.44;53.94
74778;BME280;63298;53.164;8.610;2022-09-12T11:42:43;101658.13;;;23.44;54.81
74778;BME280;63298;53.164;8.610;2022-09-12T11:45:15;101651.63;;;23.44;55.29
74778;BME280;63298;53.164;8.610;2022-09-12T11:47:47;101660.38;;;23.47;55.58
74778;BME280;63298;53.164;8.610;2022-09-12T11:50:28;101644.00;;;23.49;54.76
74778;BME280;63298;53.164;8.610;2022-09-12T11:52:57;101649.03;;;23.52;53.22
74778;BME280;63298;53.164;8.610;2022-09-12T11:55:35;101646.22;;;23.52;53.97
74778;BME280;63298;53.164;8.610;2022-09-12T11:58:03;101646.16;;;23.57;54.87
74778;BME280;63298;53.164;8.610;2022-09-12T12:00:38;101640.44;;;23.62;54.99
74778;BME280;63298;53.164;8.610;2022-09-12T12:03:19;101642.09;;;23.63;53.80
74778;BME280;63298;53.164;8.610;2022-09-12T12:05:52;101634.72;;;23.67;53.74
74778;BME280;63298;53.164;8.610;2022-09-12T12:08:24;101640.78;;;23.75;52.70
74778;BME280;63298;53.164;8.610;2022-09-12T12:11:01;101633.00;;;23.85;54.63
74778;BME280;63298;53.164;8.610;2022-09-12T12:16:11;101634.22;;;24.17;53.22
74778;BME280;63298;53.164;8.610;2022-09-12T12:18:39;101622.84;;;24.22;53.79
74778;BME280;63298;53.164;8.610;2022-09-12T12:24:24;101608.06;;;24.11;52.72
74778;BME280;63298;53.164;8.610;2022-09-12T12:27:04;101617.31;;;24.30;53.02
74778;BME280;63298;53.164;8.610;2022-09-12T12:29:46;101619.31;;;24.43;53.16
74778;BME280;63298;53.164;8.610;2022-09-12T12:34:41;101624.97;;;24.43;51.93
74778;BME280;63298;53.164;8.610;2022-09-12T12:42:09;101609.63;;;24.49;52.01
74778;BME280;63298;53.164;8.610;2022-09-12T12:47:18;101597.09;;;24.56;50.41
74778;BME280;63298;53.164;8.610;2022-09-12T12:53:01;101587.66;;;24.74;49.65
74778;BME280;63298;53.164;8.610;2022-09-12T12:55:37;101579.66;;;24.94;49.08
74778;BME280;63298;53.164;8.610;2022-09-12T12:58:25;101573.78;;;25.05;48.25
74778;BME280;63298;53.164;8.610;2022-09-12T13:01:15;101569.16;;;25.09;49.75
74778;BME280;63298;53.164;8.610;2022-09-12T13:03:44;101561.91;;;25.16;48.68
74778;BME280;63298;53.164;8.610;2022-09-12T13:06:43;101555.22;;;25.26;49.30
74778;BME280;63298;53.164;8.610;2022-09-12T13:11:39;101553.25;;;25.49;49.42
74778;BME280;63298;53.164;8.610;2022-09-12T13:14:08;101549.28;;;25.50;48.94
74778;BME280;63298;53.164;8.610;2022-09-12T13:16:55;101545.59;;;25.49;49.17
74778;BME280;63298;53.164;8.610;2022-09-12T13:19:28;101556.06;;;25.49;48.18
74778;BME280;63298;53.164;8.610;2022-09-12T13:21:55;101545.25;;;25.51;49.56
74778;BME280;63298;53.164;8.610;2022-09-12T13:24:21;101541.81;;;25.54;48.86
74778;BME280;63298;53.164;8.610;2022-09-12T13:26:47;101541.53;;;25.55;48.85
74778;BME280;63298;53.164;8.610;2022-09-12T13:29:24;101542.75;;;25.63;47.44
74778;BME280;63298;53.164;8.610;2022-09-12T13:31:54;101533.69;;;25.74;48.67
74778;BME280;63298;53.164;8.610;2022-09-12T13:34:34;101533.09;;;25.86;45.94
74778;BME280;63298;53.164;8.610;2022-09-12T13:42:39;101523.44;;;25.87;46.99
74778;BME280;63298;53.164;8.610;2022-09-12T13:47:45;101519.34;;;25.93;47.63
74778;BME280;63298;53.164;8.610;2022-09-12T13:50:20;101516.06;;;26.00;46.30
74778;BME280;63298;53.164;8.610;2022-09-12T13:52:59;101515.09;;;26.04;45.43
74778;BME280;63298;53.164;8.610;2022-09-12T13:55:32;101512.13;;;26.09;47.02
74778;BME280;63298;53.164;8.610;2022-09-12T13:58:04;101508.44;;;26.09;44.85
74778;BME280;63298;53.164;8.610;2022-09-12T14:00:31;101494.31;;;26.09;46.92
74778;BME280;63298;53.164;8.610;2022-09-12T14:02:58;101492.31;;;26.09;46.69
74778;BME280;63298;53.164;8.610;2022-09-12T14:05:24;101488.50;;;26.14;46.60
74778;BME280;63298;53.164;8.610;2022-09-12T14:07:54;101483.03;;;26.17;45.54
74778;BME280;63298;53.164;8.610;2022-09-12T14:10:27;101471.03;;;26.20;45.54
74778;BME280;63298;53.164;8.610;2022-09-12T14:12:53;101469.78;;;26.27;46.27
74778;BME280;63298;53.164;8.610;2022-09-12T14:15:23;101464.28;;;26.30;46.15
74778;BME280;63298;53.164;8.610;2022-09-12T14:18:01;101478.28;;;26.35;45.80
74778;BME280;63298;53.164;8.610;2022-09-12T14:20:29;101476.25;;;26.27;43.64
74778;BME280;63298;53.164;8.610;2022-09-12T14:23:40;101486.38;;;26.19;45.42
74778;BME280;63298;53.164;8.610;2022-09-12T14:25:41;101487.53;;;26.18;45.42
74778;BME280;63298;53.164;8.610;2022-09-12T14:28:12;101468.34;;;26.15;45.42
74778;BME280;63298;53.164;8.610;2022-09-12T14:30:38;101463.81;;;26.06;45.43
74778;BME280;63298;53.164;8.610;2022-09-12T14:35:30;101471.53;;;26.14;45.47
74778;BME280;63298;53.164;8.610;2022-09-12T14:37:55;101460.69;;;26.07;46.00
74778;BME280;63298;53.164;8.610;2022-09-12T14:40:22;101461.19;;;26.09;45.72
74778;BME280;63298;53.164;8.610;2022-09-12T14:42:49;101451.22;;;26.12;46.19
74778;BME280;63298;53.164;8.610;2022-09-12T14:47:49;101450.38;;;26.11;44.85
74778;BME280;63298;53.164;8.610;2022-09-12T14:50:23;101445.88;;;26.10;43.63
74778;BME280;63298;53.164;8.610;2022-09-12T14:53:09;101443.69;;;25.99;44.09
74778;BME280;63298;53.164;8.610;2022-09-12T14:55:52;101441.69;;;25.99;44.70
74778;BME280;63298;53.164;8.610;2022-09-12T14:58:23;101428.69;;;25.98;45.01
74778;BME280;63298;53.164;8.610;2022-09-12T15:06:41;101430.00;;;25.92;43.51
74778;BME280;63298;53.164;8.610;2022-09-12T15:09:11;101435.31;;;25.85;44.78
74778;BME280;63298;53.164;8.610;2022-09-12T15:11:37;101418.63;;;25.75;45.42
74778;BME280;63298;53.164;8.610;2022-09-12T15:14:15;101426.19;;;25.66;45.44
74778;BME280;63298;53.164;8.610;2022-09-12T15:16:40;101423.97;;;25.54;45.58
74778;BME280;63298;53.164;8.610;2022-09-12T15:19:05;101420.28;;;25.54;46.39